Time;durP1;ratioP1;P1;durP2;ratioP2;P2;SDS_P1;SDS_P2;PMS_P1;PMS_P2;Temp;Humidity;BMP_temperature;BMP_pressure;BME280_temperature;BME280_humidity;BME280_pressure;Samples;Min_cycle;Max_cycle;Signal;HPM_P1;HPM_P2
2023/04/10 00:01:07;;;;;;;72.10;50.90;;;8.10;99.90;;;;;;5072202;28;20048;-78
2023/04/10 00:03:33;;;;;;;67.80;46.40;;;8.10;99.90;;;;;;5072961;28;20056;-81
2023/04/10 00:05:59;;;;;;;68.45;51.75;;;8.10;99.90;;;;;;5073567;28;20154;-80
2023/04/10 00:08:25;;;;;;;88.03;61.05;;;8.10;99.90;;;;;;5072275;28;20458;-80
2023/04/10 00:10:52;;;;;;;89.15;62.58;;;8.10;99.90;;;;;;5072935;28;20041;-80
2023/04/10 00:13:17;;;;;;;85.85;62.03;;;8.10;99.90;;;;;;5072810;28;20553;-82
2023/04/10 00:15:43;;;;;;;95.60;65.05;;;8.00;99.90;;;;;;5073028;28;20044;-79
2023/04/10 00:18:09;;;;;;;92.30;62.05;;;8.00;99.90;;;;;;5073022;28;20536;-78
2023/04/10 00:20:34;;;;;;;92.20;62.45;;;8.00;99.90;;;;;;5072927;28;20501;-80
2023/04/10 00:23:00;;;;;;;89.68;61.13;;;8.00;99.90;;;;;;5072614;28;20048;-79
2023/04/10 00:25:26;;;;;;;91.35;62.25;;;8.00;99.90;;;;;;5088735;28;20070;-79
2023/04/10 00:27:55;;;;;;;90.47;60.97;;;8.00;99.90;;;;;;5073029;28;20040;-80
2023/04/10 00:30:20;;;;;;;85.05;60.72;;;7.90;99.90;;;;;;5072724;28;20044;-81
2023/04/10 00:32:46;;;;;;;94.57;60.83;;;7.90;99.90;;;;;;5072945;28;20067;-80
2023/04/10 00:35:12;;;;;;;100.63;63.85;;;7.90;99.90;;;;;;5072761;28;20100;-81
2023/04/10 00:37:38;;;;;;;86.88;61.45;;;7.90;99.90;;;;;;5073132;28;20123;-80
2023/04/10 00:40:05;;;;;;;87.28;60.17;;;7.80;99.90;;;;;;5072669;28;20131;-83
2023/04/10 00:42:31;;;;;;;95.03;65.97;;;7.90;99.90;;;;;;5072865;28;20442;-81
2023/04/10 00:44:57;;;;;;;87.03;62.13;;;7.80;99.90;;;;;;5072655;28;20110;-81
2023/04/10 00:47:24;;;;;;;96.70;63.35;;;7.80;99.90;;;;;;5072326;28;20500;-79
2023/04/10 00:49:50;;;;;;;94.60;62.25;;;7.80;99.90;;;;;;5072264;28;20394;-78
2023/04/10 00:52:16;;;;;;;82.28;56.80;;;7.80;99.90;;;;;;5072362;28;20044;-78
2023/04/10 00:54:42;;;;;;;81.03;58.15;;;7.80;99.90;;;;;;5072398;28;20060;-80
2023/04/10 00:57:07;;;;;;;76.95;55.22;;;7.80;99.90;;;;;;5071666;28;20347;-80
2023/04/10 00:59:34;;;;;;;80.55;55.25;;;7.80;99.90;;;;;;5072286;28;20052;-80
2023/04/10 01:02:00;;;;;;;80.95;53.90;;;7.70;99.90;;;;;;5072193;28;20110;-79
2023/04/10 01:04:27;;;;;;;71.38;52.25;;;7.70;99.90;;;;;;5071329;28;20083;-78
2023/04/10 01:07:17;;;;;;;70.47;51.10;;;7.70;99.90;;;;;;5072268;28;20056;-78
2023/04/10 01:09:50;;;;;;;86.38;58.22;;;7.70;99.90;;;;;;5071408;28;20040;-80
2023/04/10 01:12:44;;;;;;;86.72;57.45;;;7.60;99.90;;;;;;5072254;28;20098;-78
2023/04/10 01:15:17;;;;;;;90.60;61.05;;;7.60;99.90;;;;;;5072177;28;20167;-80
2023/04/10 01:17:50;;;;;;;92.47;61.17;;;7.50;99.90;;;;;;5072017;28;20482;-76
2023/04/10 01:20:21;;;;;;;84.75;61.25;;;7.50;99.90;;;;;;5072229;28;20059;-79
2023/04/10 01:23:06;;;;;;;87.65;63.17;;;7.50;99.90;;;;;;5071916;28;20044;-81
2023/04/10 01:25:55;;;;;;;89.28;62.38;;;7.50;99.90;;;;;;5076128;28;20055;-78
2023/04/10 01:28:46;;;;;;;80.30;60.13;;;7.40;99.90;;;;;;5076638;28;20052;-80
2023/04/10 01:31:40;;;;;;;84.13;58.45;;;7.40;99.90;;;;;;5075946;28;20582;-82
2023/04/10 01:34:15;;;;;;;76.68;53.65;;;7.30;99.90;;;;;;5074583;28;20055;-79
2023/04/10 01:37:11;;;;;;;81.75;58.10;;;7.30;99.90;;;;;;5075063;28;20052;-80
2023/04/10 01:39:40;;;;;;;77.13;57.53;;;7.20;99.90;;;;;;5075379;28;20048;-81
2023/04/10 01:42:07;;;;;;;76.22;54.42;;;7.20;99.90;;;;;;5075837;28;20498;-81
2023/04/10 01:44:36;;;;;;;80.47;55.60;;;7.20;99.90;;;;;;5075791;28;20134;-79
2023/04/10 01:47:06;;;;;;;75.15;57.13;;;7.10;99.90;;;;;;5075903;28;20048;-81
2023/04/10 01:49:33;;;;;;;78.70;60.63;;;7.10;99.90;;;;;;5075981;28;20049;-79
2023/04/10 01:51:59;;;;;;;82.72;60.55;;;7.10;99.90;;;;;;5076308;28;20093;-80
2023/04/10 01:54:26;;;;;;;86.93;62.67;;;7.10;99.90;;;;;;5075636;28;20052;-77
2023/04/10 01:56:52;;;;;;;88.38;66.65;;;7.00;99.90;;;;;;5076167;28;20123;-80
2023/04/10 01:59:19;;;;;;;96.40;65.63;;;7.00;99.90;;;;;;5076181;28;20109;-78
2023/04/10 02:01:45;;;;;;;94.40;62.78;;;6.90;99.90;;;;;;5075360;28;20051;-80
2023/04/10 02:04:10;;;;;;;91.80;66.07;;;6.90;99.90;;;;;;5076346;28;20127;-79
2023/04/10 02:07:15;;;;;;;88.60;65.05;;;6.90;99.90;;;;;;5109853;28;20069;-79
2023/04/10 02:10:01;;;;;;;97.32;67.35;;;6.90;99.90;;;;;;5075907;28;20048;-77
2023/04/10 02:12:35;;;;;;;96.38;69.10;;;6.70;99.90;;;;;;5074418;28;20450;-79
2023/04/10 02:15:04;;;;;;;87.55;66.47;;;6.80;99.90;;;;;;5075410;28;20119;-80
2023/04/10 02:17:31;;;;;;;99.03;66.70;;;6.80;99.90;;;;;;5075206;28;20113;-80
2023/04/10 02:19:58;;;;;;;86.88;67.00;;;6.80;99.90;;;;;;5076423;28;20058;-77
2023/04/10 02:22:25;;;;;;;83.60;65.53;;;6.80;99.90;;;;;;5080773;28;20044;-81
2023/04/10 02:24:52;;;;;;;84.95;64.32;;;6.80;99.90;;;;;;5079332;28;20044;-80
2023/04/10 02:27:32;;;;;;;88.95;67.88;;;6.70;99.90;;;;;;5078095;28;20048;-79
2023/04/10 02:29:59;;;;;;;82.70;65.10;;;6.80;99.90;;;;;;5077173;28;20056;-77
2023/04/10 02:32:26;;;;;;;90.97;66.57;;;6.80;99.90;;;;;;5075326;28;20084;-82
2023/04/10 02:34:51;;;;;;;86.38;66.22;;;6.80;99.90;;;;;;5075608;28;20058;-81
2023/04/10 02:37:17;;;;;;;90.20;67.28;;;6.70;99.90;;;;;;5075247;28;20544;-81
2023/04/10 02:39:43;;;;;;;96.10;68.72;;;6.70;99.90;;;;;;5074222;28;20067;-78
2023/04/10 02:42:09;;;;;;;85.10;65.20;;;6.60;99.90;;;;;;5074918;28;20050;-81
2023/04/10 02:44:34;;;;;;;89.32;67.00;;;6.60;99.90;;;;;;5074122;28;20095;-81
2023/04/10 02:47:00;;;;;;;90.13;66.07;;;6.60;99.90;;;;;;5075461;28;20490;-78
2023/04/10 02:49:26;;;;;;;86.55;64.28;;;6.60;99.90;;;;;;5075153;28;20098;-78
2023/04/10 02:51:52;;;;;;;83.60;65.55;;;6.70;99.90;;;;;;5074357;28;20048;-79
2023/04/10 02:54:17;;;;;;;85.60;66.82;;;6.70;99.90;;;;;;5074806;28;20090;-80
2023/04/10 02:56:43;;;;;;;85.15;66.28;;;6.80;99.90;;;;;;5074647;28;20045;-78
2023/04/10 02:59:09;;;;;;;84.18;63.80;;;6.80;99.90;;;;;;5074581;28;20051;-79
2023/04/10 03:01:35;;;;;;;76.70;60.58;;;6.80;99.90;;;;;;5074761;28;20127;-80
2023/04/10 03:04:02;;;;;;;82.55;61.67;;;6.80;99.90;;;;;;5074915;28;20102;-79
2023/04/10 03:06:28;;;;;;;76.25;58.60;;;6.80;99.90;;;;;;5074042;28;20048;-78
2023/04/10 03:08:55;;;;;;;71.63;53.47;;;6.70;99.90;;;;;;5089899;28;20377;-80
2023/04/10 03:11:21;;;;;;;66.03;52.72;;;6.80;99.90;;;;;;5073453;28;20058;-79
2023/04/10 03:13:47;;;;;;;67.43;52.72;;;6.70;99.90;;;;;;5074250;28;20049;-78
2023/04/10 03:16:13;;;;;;;65.72;50.85;;;6.70;99.90;;;;;;5074180;28;20037;-78
2023/04/10 03:18:39;;;;;;;60.30;49.03;;;6.60;99.90;;;;;;5074191;28;20045;-78
2023/04/10 03:21:05;;;;;;;60.95;50.00;;;6.80;99.90;;;;;;5073202;28;20056;-78
2023/04/10 03:23:31;;;;;;;58.80;46.30;;;6.60;99.90;;;;;;5074406;28;20049;-79
2023/04/10 03:25:56;;;;;;;51.50;44.97;;;6.70;99.90;;;;;;5074079;28;20036;-80
2023/04/10 03:28:22;;;;;;;58.47;46.42;;;6.70;99.90;;;;;;5073028;28;20106;-81
2023/04/10 03:30:51;;;;;;;54.92;43.72;;;6.70;99.90;;;;;;5073926;28;20503;-81
2023/04/10 03:33:17;;;;;;;56.95;46.25;;;6.70;99.90;;;;;;5073942;28;20076;-80
2023/04/10 03:35:45;;;;;;;57.05;45.70;;;6.70;99.90;;;;;;5073843;28;20178;-81
2023/04/10 03:38:10;;;;;;;53.72;44.00;;;6.70;99.90;;;;;;5074087;28;20055;-79
2023/04/10 03:40:36;;;;;;;51.72;42.03;;;6.60;99.90;;;;;;5073506;28;20048;-79
2023/04/10 03:43:02;;;;;;;52.55;44.00;;;6.50;99.90;;;;;;5073432;28;20040;-80
2023/04/10 03:45:28;;;;;;;56.65;43.97;;;6.60;99.90;;;;;;5073868;28;20053;-78
2023/04/10 03:47:53;;;;;;;50.58;40.80;;;6.50;99.90;;;;;;5073240;28;20077;-81
2023/04/10 03:50:19;;;;;;;48.10;38.55;;;6.60;99.90;;;;;;5073903;28;20197;-78
2023/04/10 03:52:45;;;;;;;49.90;40.80;;;6.60;99.90;;;;;;5072885;28;20053;-78
2023/04/10 03:55:11;;;;;;;52.30;43.58;;;6.70;99.90;;;;;;5073374;28;20040;-80
2023/04/10 03:57:36;;;;;;;51.60;42.90;;;6.70;99.90;;;;;;5073261;28;20048;-79
2023/04/10 04:00:04;;;;;;;54.90;43.47;;;6.60;99.90;;;;;;5073352;28;20105;-81
2023/04/10 04:02:29;;;;;;;59.65;43.03;;;6.50;99.90;;;;;;5088744;28;20051;-80
2023/04/10 04:04:56;;;;;;;54.10;42.33;;;6.40;99.90;;;;;;5073679;28;20123;-80
2023/04/10 04:07:21;;;;;;;51.95;41.15;;;6.30;99.90;;;;;;5072633;28;20135;-79
2023/04/10 04:09:47;;;;;;;53.72;43.20;;;6.30;99.90;;;;;;5072788;28;20045;-81
2023/04/10 04:12:13;;;;;;;52.60;41.10;;;6.40;99.90;;;;;;5089121;28;20045;-78
2023/04/10 04:14:39;;;;;;;58.67;44.50;;;6.40;99.90;;;;;;5089345;28;20090;-80
2023/04/10 04:17:04;;;;;;;49.70;44.03;;;6.30;99.90;;;;;;5089025;28;20048;-80
2023/04/10 04:19:30;;;;;;;53.75;43.83;;;6.30;99.90;;;;;;5073227;28;20437;-81
2023/04/10 04:21:56;;;;;;;53.67;43.85;;;6.20;99.90;;;;;;5072760;28;20066;-78
2023/04/10 04:24:22;;;;;;;56.65;44.25;;;6.10;99.90;;;;;;5072766;28;20060;-81
2023/04/10 04:26:47;;;;;;;56.17;45.70;;;6.10;99.90;;;;;;5073214;28;20067;-82
2023/04/10 04:29:13;;;;;;;59.65;45.60;;;6.00;99.90;;;;;;5072608;28;20123;-76
2023/04/10 04:31:39;;;;;;;54.47;44.20;;;6.00;99.90;;;;;;5073200;28;20044;-80
2023/04/10 04:34:04;;;;;;;61.38;45.78;;;6.00;99.90;;;;;;5072826;28;20467;-80
2023/04/10 04:36:30;;;;;;;60.42;45.05;;;6.10;99.90;;;;;;5073478;28;20084;-78
2023/04/10 04:38:56;;;;;;;59.13;44.72;;;6.00;99.90;;;;;;5088084;28;20367;-80
2023/04/10 04:41:21;;;;;;;63.70;46.22;;;6.00;99.90;;;;;;5071319;28;20084;-82
2023/04/10 04:43:48;;;;;;;57.60;45.60;;;6.00;99.90;;;;;;5088927;28;20056;-81
2023/04/10 04:46:14;;;;;;;56.58;45.38;;;6.00;99.90;;;;;;5071198;28;20052;-78
2023/04/10 04:48:41;;;;;;;58.42;46.78;;;6.00;99.90;;;;;;5072586;28;20087;-79
2023/04/10 04:51:06;;;;;;;56.38;45.90;;;6.10;99.90;;;;;;5072332;28;20051;-81
2023/04/10 04:53:32;;;;;;;53.30;46.30;;;6.10;99.90;;;;;;5072396;28;20044;-76
2023/04/10 04:55:58;;;;;;;56.80;46.42;;;6.20;99.90;;;;;;5072186;28;20040;-81
2023/04/10 04:58:24;;;;;;;60.97;47.20;;;6.30;99.90;;;;;;5072656;28;20074;-81
2023/04/10 05:00:53;;;;;;;60.00;47.53;;;6.30;99.90;;;;;;5071746;28;20156;-80
2023/04/10 05:03:19;;;;;;;60.10;47.05;;;6.40;99.90;;;;;;5073152;28;20044;-80
2023/04/10 05:05:46;;;;;;;59.85;47.60;;;6.50;99.90;;;;;;5073273;28;20105;-79
2023/04/10 05:08:12;;;;;;;56.47;45.67;;;6.50;99.90;;;;;;5072820;28;20048;-83
2023/04/10 05:10:38;;;;;;;59.78;47.65;;;6.60;99.90;;;;;;5072295;28;20041;-80
2023/04/10 05:13:03;;;;;;;57.10;48.92;;;6.70;99.90;;;;;;5072165;28;20078;-82
2023/04/10 05:15:29;;;;;;;58.67;47.50;;;6.80;99.90;;;;;;5072572;28;20040;-78
2023/04/10 05:17:55;;;;;;;60.00;47.65;;;6.90;99.90;;;;;;5072104;28;20045;-78
2023/04/10 05:20:20;;;;;;;59.47;47.10;;;6.90;99.90;;;;;;5072415;28;20048;-79
2023/04/10 05:22:47;;;;;;;61.10;48.63;;;7.10;99.90;;;;;;5072234;28;20048;-78
2023/04/10 05:25:13;;;;;;;63.28;48.40;;;7.10;99.90;;;;;;5070503;28;20455;-80
2023/04/10 05:27:38;;;;;;;58.13;47.85;;;7.10;99.90;;;;;;5087431;28;20044;-79
2023/04/10 05:30:04;;;;;;;56.97;46.13;;;7.20;99.90;;;;;;5087554;28;20056;-79
2023/04/10 05:32:30;;;;;;;62.55;47.75;;;7.20;99.90;;;;;;5071441;28;20044;-79
2023/04/10 05:34:56;;;;;;;56.22;46.17;;;7.30;99.90;;;;;;5074096;28;20066;-80
2023/04/10 05:37:22;;;;;;;61.30;47.88;;;7.40;99.90;;;;;;5079808;28;20084;-78
2023/04/10 05:39:47;;;;;;;54.80;44.63;;;7.40;99.90;;;;;;5079588;28;20494;-82
2023/04/10 05:42:13;;;;;;;61.58;45.58;;;7.50;99.90;;;;;;5077853;28;20398;-78
2023/04/10 05:44:39;;;;;;;58.88;44.22;;;7.50;99.90;;;;;;5075540;28;20064;-81
2023/04/10 05:47:05;;;;;;;54.40;42.90;;;7.60;99.90;;;;;;5072038;28;20068;-80
2023/04/10 05:49:30;;;;;;;56.88;45.15;;;7.70;99.90;;;;;;5071805;28;20049;-78
2023/04/10 05:51:59;;;;;;;63.13;44.67;;;7.70;99.90;;;;;;5071963;28;20120;-78
2023/04/10 05:54:25;;;;;;;58.58;46.38;;;7.90;99.90;;;;;;5071901;28;20090;-80
2023/04/10 05:56:50;;;;;;;56.72;44.33;;;7.90;99.90;;;;;;5072221;28;20048;-78
2023/04/10 05:59:16;;;;;;;58.58;45.40;;;7.90;99.90;;;;;;5088167;28;20045;-81
2023/04/10 06:01:42;;;;;;;62.60;46.30;;;8.00;99.90;;;;;;5088028;28;20060;-82
2023/04/10 06:04:08;;;;;;;54.17;44.50;;;8.00;99.90;;;;;;5070579;28;20053;-78
2023/04/10 06:06:34;;;;;;;54.33;45.80;;;8.00;99.90;;;;;;5071732;28;20060;-79
2023/04/10 06:09:00;;;;;;;53.88;43.90;;;8.10;99.90;;;;;;5070722;28;20124;-81
2023/04/10 06:11:26;;;;;;;58.33;47.22;;;8.20;99.90;;;;;;5091784;28;20133;-79
2023/04/10 06:13:51;;;;;;;55.30;45.70;;;8.30;99.90;;;;;;5057731;28;20048;-80
2023/04/10 06:16:17;;;;;;;62.35;46.70;;;8.40;99.90;;;;;;5075156;28;20064;-80
2023/04/10 06:18:43;;;;;;;58.88;45.28;;;8.50;99.90;;;;;;5075228;28;20528;-80
2023/04/10 06:21:08;;;;;;;57.85;46.55;;;8.60;99.90;;;;;;5074935;28;20044;-80
2023/04/10 06:23:34;;;;;;;57.67;46.60;;;8.70;99.90;;;;;;5074171;28;20369;-79
2023/04/10 06:26:02;;;;;;;62.00;45.15;;;8.90;99.90;;;;;;5074170;28;20052;-79
2023/04/10 06:28:27;;;;;;;60.05;45.60;;;9.10;99.90;;;;;;5074949;28;20472;-81
2023/04/10 06:30:53;;;;;;;60.60;45.13;;;9.10;99.90;;;;;;5074821;28;20052;-77
2023/04/10 06:33:19;;;;;;;58.90;46.97;;;9.20;99.90;;;;;;5075305;28;20102;-80
2023/04/10 06:35:45;;;;;;;57.85;44.45;;;9.20;99.90;;;;;;5073702;28;20059;-77
2023/04/10 06:38:11;;;;;;;58.33;44.50;;;9.20;99.90;;;;;;5075170;28;20044;-80
2023/04/10 06:40:37;;;;;;;51.60;41.35;;;9.30;99.90;;;;;;5073817;28;20048;-79
2023/04/10 06:43:02;;;;;;;51.78;41.80;;;9.30;99.90;;;;;;5075251;28;20083;-81
2023/04/10 06:45:28;;;;;;;49.97;43.03;;;9.40;99.90;;;;;;5073137;28;20464;-78
2023/04/10 06:47:54;;;;;;;53.28;42.60;;;9.50;99.90;;;;;;5074602;28;20056;-79
2023/04/10 06:50:20;;;;;;;52.83;43.53;;;9.50;99.90;;;;;;5074667;28;20049;-80
2023/04/10 06:52:47;;;;;;;52.13;41.95;;;9.60;99.90;;;;;;5074652;28;20046;-80
2023/04/10 06:55:13;;;;;;;54.85;40.47;;;9.70;99.90;;;;;;5073745;28;20044;-79
2023/04/10 06:57:39;;;;;;;55.33;43.70;;;9.70;99.90;;;;;;5073707;28;20135;-79
2023/04/10 07:00:09;;;;;;;57.13;44.30;;;9.80;99.90;;;;;;5074598;28;20037;-79
2023/04/10 07:02:35;;;;;;;55.60;42.00;;;10.00;99.90;;;;;;5075100;28;20477;-82
2023/04/10 07:05:00;;;;;;;54.65;41.78;;;10.10;99.90;;;;;;5075255;28;20044;-79
2023/04/10 07:07:27;;;;;;;50.92;40.83;;;10.20;99.90;;;;;;5090754;28;20446;-80
2023/04/10 07:09:53;;;;;;;52.65;39.22;;;10.30;99.90;;;;;;5090070;28;20595;-80
2023/04/10 07:12:19;;;;;;;48.67;38.30;;;10.30;99.90;;;;;;5074862;28;20049;-77
2023/04/10 07:14:45;;;;;;;48.72;35.40;;;10.40;99.90;;;;;;5074541;28;20048;-78
2023/04/10 07:17:10;;;;;;;45.25;37.97;;;10.40;99.90;;;;;;5074239;28;20050;-80
2023/04/10 07:19:37;;;;;;;45.00;36.38;;;10.40;99.90;;;;;;5090416;28;20044;-83
2023/04/10 07:22:03;;;;;;;54.30;37.40;;;10.50;99.90;;;;;;5073116;28;20049;-78
2023/04/10 07:24:30;;;;;;;45.50;36.33;;;10.80;99.90;;;;;;5073994;28;20041;-82
2023/04/10 07:26:56;;;;;;;49.13;35.50;;;10.90;99.90;;;;;;5073954;28;20054;-79
2023/04/10 07:29:22;;;;;;;47.63;33.97;;;11.90;99.90;;;;;;5073990;28;20127;-81
2023/04/10 07:31:48;;;;;;;44.13;32.70;;;12.20;99.90;;;;;;5074351;28;20040;-79
2023/04/10 07:34:14;;;;;;;44.28;33.78;;;12.60;99.30;;;;;;5073721;28;20045;-78
2023/04/10 07:36:39;;;;;;;42.05;31.10;;;12.80;99.00;;;;;;5074030;28;20049;-80
2023/04/10 07:39:05;;;;;;;43.20;33.22;;;12.90;98.50;;;;;;5073320;28;20078;-80
2023/04/10 07:41:31;;;;;;;42.88;30.38;;;13.10;98.70;;;;;;5073963;28;20451;-82
2023/04/10 07:43:56;;;;;;;39.58;27.92;;;13.50;98.30;;;;;;5073900;28;20051;-78
2023/04/10 07:46:22;;;;;;;41.58;28.55;;;14.40;97.20;;;;;;5088932;28;20065;-81
2023/04/10 07:48:48;;;;;;;38.47;25.88;;;15.20;96.00;;;;;;5089455;28;20055;-80
2023/04/10 07:51:14;;;;;;;37.60;28.58;;;15.60;94.60;;;;;;5073362;28;20546;-78
2023/04/10 07:53:41;;;;;;;37.38;26.42;;;15.90;94.20;;;;;;5073988;28;20049;-82
2023/04/10 07:56:13;;;;;;;34.47;26.67;;;16.10;93.80;;;;;;5073573;28;20052;-81
2023/04/10 07:58:39;;;;;;;32.03;24.35;;;16.20;93.20;;;;;;5072568;28;20476;-84
2023/04/10 08:01:05;;;;;;;35.85;26.45;;;16.40;92.30;;;;;;5073724;28;20182;-81
2023/04/10 08:03:37;;;;;;;33.90;24.00;;;16.60;91.60;;;;;;5073400;28;20037;-80
2023/04/10 08:06:03;;;;;;;34.70;26.17;;;16.90;91.50;;;;;;5073732;28;20044;-81
2023/04/10 08:08:29;;;;;;;36.30;27.25;;;17.10;90.20;;;;;;5072753;28;20055;-80
2023/04/10 08:10:54;;;;;;;34.30;26.67;;;17.30;90.80;;;;;;5073182;28;20094;-80
2023/04/10 08:13:20;;;;;;;34.45;23.98;;;17.50;90.40;;;;;;5089145;28;20496;-80
2023/04/10 08:15:46;;;;;;;31.77;21.17;;;17.70;89.50;;;;;;5072260;28;20082;-80
2023/04/10 08:18:11;;;;;;;37.17;26.48;;;17.70;89.10;;;;;;5073048;28;20052;-82
2023/04/10 08:20:37;;;;;;;30.13;22.77;;;17.80;89.20;;;;;;5089039;28;20048;-80
2023/04/10 08:23:03;;;;;;;27.88;23.88;;;17.80;88.50;;;;;;5073003;28;20047;-82
2023/04/10 08:25:30;;;;;;;32.05;23.75;;;18.00;88.00;;;;;;5072161;28;20087;-80
2023/04/10 08:27:55;;;;;;;30.38;23.63;;;18.00;87.40;;;;;;5072818;28;20044;-79
2023/04/10 08:30:21;;;;;;;25.80;20.88;;;18.20;87.40;;;;;;5071639;28;20059;-80
2023/04/10 08:32:47;;;;;;;26.98;20.38;;;18.20;86.50;;;;;;5072854;28;20043;-80
2023/04/10 08:35:12;;;;;;;24.27;19.90;;;18.20;85.50;;;;;;5088999;28;20060;-81
2023/04/10 08:37:38;;;;;;;32.38;20.73;;;18.10;85.10;;;;;;5072596;28;20043;-81
2023/04/10 08:40:04;;;;;;;29.45;21.40;;;18.00;86.00;;;;;;5072935;28;20078;-81
2023/04/10 08:42:30;;;;;;;26.67;21.42;;;18.10;86.50;;;;;;5073234;28;20044;-76
2023/04/10 08:44:56;;;;;;;24.65;19.20;;;18.10;87.10;;;;;;5072623;28;20057;-81
2023/04/10 08:47:25;;;;;;;21.92;18.35;;;17.90;82.90;;;;;;5073139;28;20056;-80
2023/04/10 08:49:56;;;;;;;23.63;17.25;;;17.70;84.70;;;;;;5072486;28;20048;-82
2023/04/10 08:52:24;;;;;;;28.67;19.75;;;17.60;84.60;;;;;;5077790;28;20040;-82
2023/04/10 08:54:54;;;;;;;25.63;17.40;;;17.90;85.30;;;;;;5075967;28;20044;-79
2023/04/10 08:57:21;;;;;;;22.10;17.42;;;17.90;82.10;;;;;;5076259;28;20052;-80
2023/04/10 08:59:48;;;;;;;17.63;15.48;;;17.50;84.50;;;;;;5074118;28;20040;-82
2023/04/10 09:02:14;;;;;;;23.13;16.95;;;17.10;84.20;;;;;;5072999;28;20482;-80
2023/04/10 09:04:53;;;;;;;22.40;17.95;;;16.80;84.20;;;;;;5073211;28;20116;-80
2023/04/10 09:07:19;;;;;;;23.80;19.10;;;17.00;84.50;;;;;;5073308;28;20044;-80
2023/04/10 09:09:45;;;;;;;22.90;17.55;;;17.30;85.50;;;;;;5089218;28;20517;-79
2023/04/10 09:12:15;;;;;;;30.88;17.35;;;17.60;85.20;;;;;;5072570;28;20186;-80
2023/04/10 09:14:41;;;;;;;23.98;16.67;;;17.70;83.40;;;;;;5088660;28;20055;-79
2023/04/10 09:17:18;;;;;;;25.83;17.90;;;17.50;84.90;;;;;;5072841;28;20098;-81
2023/04/10 09:19:45;;;;;;;23.15;18.65;;;17.50;84.80;;;;;;5072655;28;20055;-81
2023/04/10 09:22:12;;;;;;;21.95;14.65;;;18.10;85.00;;;;;;5073043;28;20044;-82
2023/04/10 09:24:44;;;;;;;19.50;17.40;;;18.50;84.80;;;;;;5072083;28;20044;-83
2023/04/10 09:27:10;;;;;;;18.35;14.50;;;19.10;83.60;;;;;;5072077;28;20041;-81
2023/04/10 09:29:44;;;;;;;17.75;13.88;;;19.50;82.10;;;;;;5072542;28;20048;-79
2023/04/10 09:32:11;;;;;;;22.48;16.67;;;19.70;81.70;;;;;;5072437;28;20127;-82
2023/04/10 09:34:57;;;;;;;20.15;14.90;;;19.80;81.00;;;;;;5072396;28;20045;-82
2023/04/10 09:37:34;;;;;;;22.20;17.20;;;19.40;79.70;;;;;;5072562;28;20087;-80
2023/04/10 09:40:00;;;;;;;20.10;17.25;;;18.80;80.10;;;;;;5071350;28;20045;-81
2023/04/10 09:42:36;;;;;;;21.73;17.10;;;18.40;81.20;;;;;;5072087;28;20098;-79
2023/04/10 09:45:03;;;;;;;25.23;16.85;;;18.50;81.90;;;;;;5072888;28;20059;-81
2023/04/10 09:47:29;;;;;;;21.00;16.70;;;18.50;81.90;;;;;;5075856;28;20048;-82
2023/04/10 09:49:59;;;;;;;23.50;15.73;;;18.70;81.80;;;;;;5076139;28;20045;-81
2023/04/10 09:52:31;;;;;;;21.95;15.30;;;19.00;81.20;;;;;;5075380;28;20424;-81
2023/04/10 09:54:59;;;;;;;22.75;17.58;;;19.00;80.20;;;;;;5076006;28;20044;-81
2023/04/10 09:57:27;;;;;;;19.42;15.93;;;19.10;79.90;;;;;;5074946;28;20044;-80
2023/04/10 09:59:55;;;;;;;17.65;12.52;;;19.10;80.90;;;;;;5075835;28;20040;-83
2023/04/10 10:02:26;;;;;;;19.88;15.73;;;18.90;78.40;;;;;;5076434;28;20067;-81
2023/04/10 10:04:53;;;;;;;22.35;15.85;;;18.60;80.00;;;;;;5075758;28;20570;-81
2023/04/10 10:07:21;;;;;;;22.00;15.63;;;18.60;79.90;;;;;;5075369;28;20497;-82
2023/04/10 10:09:49;;;;;;;19.08;14.80;;;18.40;79.40;;;;;;5075690;28;20044;-81
2023/04/10 10:12:49;;;;;;;20.25;16.23;;;18.60;80.20;;;;;;5075564;28;20049;-80
2023/04/10 10:15:37;;;;;;;18.38;13.27;;;18.60;78.50;;;;;;5067924;28;20137;-84
2023/04/10 10:18:35;;;;;;;18.75;14.77;;;18.70;79.50;;;;;;5075581;28;20045;-82
2023/04/10 10:21:02;;;;;;;20.52;13.73;;;18.70;79.10;;;;;;5067933;28;20254;-81
2023/04/10 10:23:30;;;;;;;17.17;13.85;;;18.70;79.80;;;;;;5075445;28;20119;-81
2023/04/10 10:25:59;;;;;;;18.27;12.38;;;18.90;80.10;;;;;;5075898;28;20133;-78
2023/04/10 10:28:27;;;;;;;18.38;14.25;;;19.10;79.50;;;;;;5075478;28;20049;-82
2023/04/10 10:30:54;;;;;;;17.77;13.55;;;19.20;79.40;;;;;;5075322;28;20054;-82
2023/04/10 10:33:20;;;;;;;15.63;12.20;;;19.10;78.80;;;;;;5075343;28;20501;-82
2023/04/10 10:35:46;;;;;;;17.13;12.77;;;19.40;79.40;;;;;;5090878;28;20045;-80
2023/04/10 10:38:12;;;;;;;16.67;12.95;;;19.10;79.60;;;;;;5075192;28;20106;-80
2023/04/10 10:41:15;;;;;;;12.30;10.15;;;19.20;79.10;;;;;;5075112;28;20084;-80
2023/04/10 10:43:41;;;;;;;13.70;8.67;;;18.90;78.00;;;;;;5073971;28;20419;-80
2023/04/10 10:46:11;;;;;;;14.45;7.53;;;18.40;76.20;;;;;;5073781;28;20295;-82
2023/04/10 10:48:37;;;;;;;12.52;8.57;;;18.30;78.30;;;;;;5074984;28;20060;-80
2023/04/10 10:51:03;;;;;;;9.88;6.60;;;18.00;77.40;;;;;;5074222;28;20047;-81
2023/04/10 10:53:36;;;;;;;11.45;7.30;;;17.70;77.10;;;;;;5074974;28;20040;-82
2023/04/10 10:56:21;;;;;;;16.65;8.65;;;17.30;78.00;;;;;;5057692;28;20044;-80
2023/04/10 10:58:48;;;;;;;10.80;8.45;;;17.10;79.10;;;;;;5074819;28;20049;-80
2023/04/10 11:01:14;;;;;;;8.45;7.57;;;16.90;78.70;;;;;;5074788;28;20458;-80
2023/04/10 11:03:40;;;;;;;8.30;7.32;;;16.80;79.70;;;;;;5075214;28;20115;-81
2023/04/10 11:06:08;;;;;;;9.68;7.55;;;16.90;80.00;;;;;;5075022;28;20524;-81
2023/04/10 11:08:42;;;;;;;11.00;7.85;;;16.80;79.70;;;;;;5074663;28;20051;-80
2023/04/10 11:11:15;;;;;;;9.05;7.30;;;16.80;79.80;;;;;;5074679;28;20052;-80
2023/04/10 11:13:51;;;;;;;11.98;7.70;;;16.80;80.40;;;;;;5074565;28;20115;-79
2023/04/10 11:16:21;;;;;;;9.43;7.55;;;16.90;80.50;;;;;;5074744;28;20044;-80
2023/04/10 11:18:50;;;;;;;8.88;6.65;;;16.90;80.60;;;;;;5074966;28;20062;-80
2023/04/10 11:21:20;;;;;;;10.40;7.22;;;17.00;80.30;;;;;;5074446;28;20123;-80
2023/04/10 11:23:49;;;;;;;9.80;6.80;;;17.00;80.30;;;;;;5073059;28;20489;-80
2023/04/10 11:26:39;;;;;;;10.40;6.82;;;17.10;80.70;;;;;;5073290;28;20052;-80
2023/04/10 11:29:26;;;;;;;9.13;6.60;;;17.10;80.80;;;;;;5074531;28;20044;-80
2023/04/10 11:31:57;;;;;;;8.23;6.10;;;16.80;80.90;;;;;;5074607;28;20123;-79
2023/04/10 11:34:23;;;;;;;8.55;5.95;;;16.90;80.70;;;;;;5089800;28;20082;-80
2023/04/10 11:36:49;;;;;;;9.95;6.47;;;16.80;81.00;;;;;;5074123;28;20067;-81
2023/04/10 11:39:19;;;;;;;8.13;5.95;;;16.70;80.70;;;;;;5073972;28;20080;-80
2023/04/10 11:41:56;;;;;;;9.60;6.40;;;16.70;80.40;;;;;;5073919;28;20080;-81
2023/04/10 11:44:25;;;;;;;6.63;5.90;;;16.80;81.10;;;;;;5073990;28;20145;-81
2023/04/10 11:46:51;;;;;;;9.93;6.60;;;16.80;81.70;;;;;;5072455;28;20527;-79
2023/04/10 11:49:22;;;;;;;7.72;5.80;;;17.00;82.10;;;;;;5072879;28;20471;-80
2023/04/10 11:51:49;;;;;;;8.57;6.05;;;17.10;81.00;;;;;;5074263;28;20505;-80
2023/04/10 11:54:20;;;;;;;6.95;5.82;;;17.10;81.20;;;;;;5073611;28;20101;-80
2023/04/10 11:57:02;;;;;;;8.82;5.55;;;17.00;80.90;;;;;;5072897;28;20060;-79
2023/04/10 11:59:32;;;;;;;7.43;5.18;;;17.00;80.20;;;;;;5073764;28;20052;-81
2023/04/10 12:02:09;;;;;;;5.97;4.40;;;17.00;81.30;;;;;;5056310;28;20053;-81
2023/04/10 12:04:35;;;;;;;8.88;5.10;;;16.90;80.10;;;;;;5072684;28;20426;-80
2023/04/10 12:07:01;;;;;;;6.43;4.68;;;16.80;80.60;;;;;;5073820;28;20083;-80
2023/04/10 12:09:27;;;;;;;11.98;5.40;;;16.80;80.90;;;;;;5073283;28;20082;-81
2023/04/10 12:11:55;;;;;;;7.82;5.25;;;16.90;81.10;;;;;;5073159;28;20048;-81
2023/04/10 12:14:22;;;;;;;4.75;4.15;;;17.10;80.70;;;;;;5072957;28;20053;-80
2023/04/10 12:16:49;;;;;;;5.75;5.07;;;17.20;80.20;;;;;;5073602;28;20529;-81
2023/04/10 12:19:16;;;;;;;8.80;4.68;;;17.30;80.10;;;;;;5073897;28;20052;-80
2023/04/10 12:21:43;;;;;;;6.78;4.07;;;17.40;80.20;;;;;;5072868;28;20052;-80
2023/04/10 12:24:09;;;;;;;8.18;3.95;;;17.50;80.10;;;;;;5073359;28;20048;-79
2023/04/10 12:26:36;;;;;;;7.05;3.97;;;17.80;80.40;;;;;;5072654;28;20606;-78
2023/04/10 12:29:02;;;;;;;6.88;4.75;;;17.90;79.30;;;;;;5073154;28;20048;-80
2023/04/10 12:31:35;;;;;;;7.07;4.25;;;17.90;79.10;;;;;;5073257;28;20061;-80
2023/04/10 12:34:05;;;;;;;7.55;3.97;;;18.00;79.40;;;;;;5072404;28;20378;-79
2023/04/10 12:36:33;;;;;;;5.32;4.10;;;18.10;78.60;;;;;;5072634;28;20055;-79
2023/04/10 12:39:01;;;;;;;6.22;4.57;;;18.10;78.80;;;;;;5073488;28;20044;-79
2023/04/10 12:41:33;;;;;;;10.07;4.07;;;18.10;79.50;;;;;;5072039;28;20127;-80